createdAt,value
2023-05-20T00:00:43.210Z,14.23
2023-05-20T00:01:44.092Z,14.15
2023-05-20T00:02:45.059Z,14.12
2023-05-20T00:03:46.108Z,14.09
2023-05-20T00:04:48.985Z,14.03
2023-05-20T00:05:47.346Z,14.12
2023-05-20T00:06:48.234Z,14.40
2023-05-20T00:07:49.136Z,14.64
2023-05-20T00:08:50.003Z,15.15
2023-05-20T00:09:50.937Z,15.23
2023-05-20T00:10:51.829Z,15.05
2023-05-20T00:11:52.701Z,14.77
2023-05-20T00:12:53.622Z,14.51
2023-05-20T00:13:54.481Z,14.28
2023-05-20T00:14:56.106Z,14.13
2023-05-20T00:15:56.119Z,14.04
2023-05-20T00:16:57.035Z,13.93
2023-05-20T00:17:57.961Z,13.85
2023-05-20T00:19:00.316Z,14.03
2023-05-20T00:19:59.733Z,14.38
2023-05-20T00:21:00.598Z,14.69
2023-05-20T00:22:01.499Z,14.87
2023-05-20T00:23:02.401Z,14.69
2023-05-20T00:24:03.258Z,14.45
2023-05-20T00:25:04.155Z,14.21
2023-05-20T00:26:05.053Z,14.03
2023-05-20T00:27:05.939Z,13.80
2023-05-20T00:28:06.855Z,13.68
2023-05-20T00:29:07.692Z,13.60
2023-05-20T00:30:08.597Z,13.46
2023-05-20T00:31:09.477Z,13.43
2023-05-20T00:32:10.504Z,13.40
2023-05-20T00:33:11.013Z,13.27
2023-05-20T00:36:00.134Z,13.11
2023-05-20T00:37:00.634Z,13.11
2023-05-20T00:38:01.553Z,13.23
2023-05-20T00:39:02.393Z,13.42
2023-05-20T00:40:03.359Z,13.82
2023-05-20T00:41:04.287Z,13.83
2023-05-20T00:42:05.137Z,13.65
2023-05-20T00:43:06.038Z,13.51
2023-05-20T00:44:06.906Z,13.36
2023-05-20T00:45:07.810Z,13.24
2023-05-20T00:46:08.752Z,13.17
2023-05-20T00:47:09.143Z,13.08
2023-05-20T00:48:10.103Z,12.93
2023-05-20T00:49:11.032Z,12.80
2023-05-20T00:50:11.918Z,12.66
2023-05-20T00:51:12.842Z,12.62
2023-05-20T00:52:13.708Z,12.62
2023-05-20T00:53:14.613Z,12.65
2023-05-20T00:54:15.555Z,12.96
2023-05-20T00:55:16.458Z,13.17
2023-05-20T00:56:17.387Z,13.20
2023-05-20T00:57:18.260Z,13.06
2023-05-20T00:58:19.163Z,13.04
2023-05-20T00:59:20.052Z,12.95
2023-05-20T01:00:20.934Z,12.84
2023-05-20T01:01:21.838Z,12.77
2023-05-20T01:02:22.870Z,12.73
2023-05-20T01:03:23.505Z,12.71
2023-05-20T01:04:23.953Z,12.62
2023-05-20T01:05:24.820Z,12.53
2023-05-20T01:06:25.744Z,12.46
2023-05-20T01:07:26.628Z,12.47
2023-05-20T01:10:16.578Z,13.02
2023-05-20T01:11:17.044Z,13.20
2023-05-20T01:12:17.975Z,13.14
2023-05-20T01:13:18.857Z,13.04
2023-05-20T01:14:19.742Z,12.96
2023-05-20T01:15:20.629Z,12.77
2023-05-20T01:18:10.377Z,12.53
2023-05-20T01:19:11.333Z,12.41
2023-05-20T01:20:12.210Z,12.44
2023-05-20T01:21:14.059Z,12.46
2023-05-20T01:22:13.954Z,12.41
2023-05-20T01:23:14.879Z,12.35
2023-05-20T01:24:17.103Z,12.48
2023-05-20T01:25:16.502Z,12.69
2023-05-20T01:26:17.342Z,12.88
2023-05-20T01:27:18.279Z,12.86
2023-05-20T01:28:19.179Z,12.61
2023-05-20T01:29:20.081Z,12.62
2023-05-20T01:30:20.969Z,12.53
2023-05-20T01:31:21.878Z,12.44
2023-05-20T01:32:22.792Z,12.38
2023-05-20T01:33:23.655Z,12.29
2023-05-20T01:34:24.536Z,12.26
2023-05-20T01:35:25.441Z,12.18
2023-05-20T01:36:26.307Z,12.10
2023-05-20T01:37:27.202Z,12.10
2023-05-20T01:38:31.887Z,12.00
2023-05-20T01:39:28.735Z,12.10
2023-05-20T01:40:29.610Z,12.25
2023-05-20T01:41:30.499Z,12.43
2023-05-20T01:42:31.401Z,12.41
2023-05-20T01:43:32.331Z,12.41
2023-05-20T01:44:33.212Z,12.33
2023-05-20T01:45:34.392Z,12.22
2023-05-20T01:46:34.945Z,12.14
2023-05-20T01:47:35.838Z,12.13
2023-05-20T01:48:36.397Z,12.04
2023-05-20T01:49:37.308Z,11.97
2023-05-20T01:50:38.199Z,11.97
2023-05-20T01:51:39.128Z,12.11
2023-05-20T01:52:39.966Z,12.25
2023-05-20T01:54:04.907Z,12.55
2023-05-20T01:54:41.753Z,12.81
2023-05-20T01:55:42.585Z,12.88
2023-05-20T01:56:43.464Z,12.86
2023-05-20T01:57:44.358Z,12.93
2023-05-20T01:58:45.272Z,12.68
2023-05-20T01:59:46.157Z,12.51
2023-05-20T02:02:35.910Z,12.14
2023-05-20T02:03:36.560Z,12.04
2023-05-20T02:04:37.027Z,12.00
2023-05-20T02:05:38.353Z,11.89
2023-05-20T02:06:38.546Z,11.84
2023-05-20T02:07:39.391Z,11.76
2023-05-20T02:10:28.951Z,11.70
2023-05-20T02:11:29.454Z,11.70
2023-05-20T02:12:30.376Z,11.67
2023-05-20T02:13:31.229Z,11.61
2023-05-20T02:14:32.107Z,11.52
2023-05-20T02:15:33.243Z,11.52
2023-05-20T02:16:34.165Z,11.51
2023-05-20T02:17:34.674Z,11.52
2023-05-20T02:18:35.574Z,11.54
2023-05-20T02:19:36.447Z,11.56
2023-05-20T02:20:38.016Z,11.55
2023-05-20T02:21:37.900Z,11.54
2023-05-20T02:24:28.366Z,11.52
2023-05-20T02:25:28.295Z,11.67
2023-05-20T02:26:29.257Z,11.84
2023-05-20T02:27:30.142Z,12.07
2023-05-20T02:28:31.063Z,12.47
2023-05-20T02:29:31.931Z,12.51
2023-05-20T02:30:56.123Z,12.61
2023-05-20T02:31:33.436Z,12.68
2023-05-20T02:32:34.331Z,12.80
2023-05-20T02:33:35.253Z,12.71
2023-05-20T02:34:36.168Z,12.58
2023-05-20T02:35:37.109Z,12.36
2023-05-20T02:36:37.960Z,12.21
2023-05-20T02:38:01.814Z,12.05
2023-05-20T02:38:39.106Z,11.87
2023-05-20T02:39:40.005Z,11.73
2023-05-20T02:40:40.987Z,11.67
2023-05-20T02:41:41.891Z,11.51
2023-05-20T02:42:42.812Z,11.45
2023-05-20T02:43:43.274Z,11.38
2023-05-20T02:46:33.374Z,11.36
2023-05-20T02:47:33.816Z,11.55
2023-05-20T02:48:34.680Z,11.76
2023-05-20T02:49:35.541Z,12.07
2023-05-20T02:50:36.405Z,12.40
2023-05-20T02:51:37.323Z,12.47
2023-05-20T02:52:38.232Z,12.55
2023-05-20T02:53:39.071Z,12.43
2023-05-20T02:54:39.945Z,12.23
2023-05-20T02:55:40.850Z,12.11
2023-05-20T02:56:41.751Z,11.89
2023-05-20T02:57:42.632Z,11.69
2023-05-20T02:58:43.590Z,11.58
2023-05-20T02:59:44.433Z,11.55
2023-05-20T03:00:45.294Z,11.48
2023-05-20T03:01:46.420Z,11.41
2023-05-20T03:02:46.846Z,11.43
2023-05-20T03:03:47.766Z,11.41
2023-05-20T03:04:48.751Z,11.41
2023-05-20T03:05:49.143Z,11.34
2023-05-20T03:06:50.056Z,11.31
2023-05-20T03:08:14.310Z,11.34
2023-05-20T03:08:51.640Z,11.36
2023-05-20T03:09:52.519Z,11.36
2023-05-20T03:10:53.424Z,11.27
2023-05-20T03:11:54.339Z,11.46
2023-05-20T03:12:55.174Z,11.55
2023-05-20T03:13:56.120Z,11.69
2023-05-20T03:14:57.010Z,11.84
2023-05-20T03:15:57.925Z,11.96
2023-05-20T03:16:58.800Z,12.10
2023-05-20T03:17:59.709Z,12.13
2023-05-20T03:19:00.621Z,11.82
2023-05-20T03:20:01.550Z,11.71
2023-05-20T03:21:02.430Z,11.66
2023-05-20T03:22:03.425Z,11.61
2023-05-20T03:23:04.271Z,11.52
2023-05-20T03:24:05.155Z,11.41
2023-05-20T03:25:06.096Z,11.34
2023-05-20T03:26:07.001Z,11.30
2023-05-20T03:27:09.722Z,11.19
2023-05-20T03:28:08.591Z,11.13
2023-05-20T03:31:00.151Z,11.08
2023-05-20T03:31:59.117Z,11.05
2023-05-20T03:33:00.088Z,11.09
2023-05-20T03:34:00.494Z,11.11
2023-05-20T03:35:01.503Z,11.12
2023-05-20T03:36:01.901Z,11.09
2023-05-20T03:37:26.139Z,11.08
2023-05-20T03:38:03.534Z,11.13
2023-05-20T03:39:04.409Z,11.27
2023-05-20T03:40:05.282Z,11.56
2023-05-20T03:41:06.180Z,11.88
2023-05-20T03:42:07.157Z,11.77
2023-05-20T03:43:08.058Z,11.74
2023-05-20T03:44:31.197Z,11.99
2023-05-20T03:45:09.575Z,12.26
2023-05-20T03:46:10.445Z,12.43
2023-05-20T03:47:11.394Z,12.35
2023-05-20T03:48:12.261Z,12.21
2023-05-20T03:49:13.144Z,11.96
2023-05-20T03:50:14.063Z,11.73
2023-05-20T03:53:03.606Z,11.37
2023-05-20T03:54:04.555Z,11.25
2023-05-20T03:55:05.052Z,11.23
2023-05-20T03:56:05.964Z,11.19
2023-05-20T03:57:07.437Z,11.15
2023-05-20T03:58:07.527Z,11.12
2023-05-20T03:59:08.395Z,11.09
2023-05-20T04:00:09.293Z,11.05
2023-05-20T04:01:10.180Z,11.05
2023-05-20T04:02:11.097Z,11.05
2023-05-20T04:03:12.017Z,11.01
2023-05-20T04:04:12.589Z,11.00
2023-05-20T04:05:12.977Z,11.03
2023-05-20T04:06:13.873Z,11.03
2023-05-20T04:07:14.747Z,11.12
2023-05-20T04:08:15.656Z,11.43
2023-05-20T04:09:16.574Z,11.79
2023-05-20T04:12:06.312Z,12.47
2023-05-20T04:13:06.728Z,12.38
2023-05-20T04:14:07.623Z,12.54
2023-05-20T04:15:08.510Z,12.54
2023-05-20T04:16:09.428Z,12.53
2023-05-20T04:17:10.290Z,12.46
2023-05-20T04:20:00.112Z,11.88
2023-05-20T04:21:00.736Z,11.76
2023-05-20T04:22:01.619Z,11.67
2023-05-20T04:23:02.504Z,11.58
2023-05-20T04:24:03.412Z,11.56
2023-05-20T04:25:04.284Z,11.46
2023-05-20T04:26:06.465Z,11.46
2023-05-20T04:27:05.891Z,11.51
2023-05-20T04:28:06.743Z,11.51
2023-05-20T04:29:07.627Z,11.52
2023-05-20T04:30:08.530Z,11.46
2023-05-20T04:31:09.409Z,11.43
2023-05-20T04:32:10.315Z,11.45
2023-05-20T04:33:11.258Z,11.45
2023-05-20T04:34:12.142Z,11.40
2023-05-20T04:35:13.037Z,11.38
2023-05-20T04:36:13.936Z,11.38
2023-05-20T04:37:14.833Z,11.45
2023-05-20T04:38:15.692Z,11.48
2023-05-20T04:39:16.600Z,11.73
2023-05-20T04:40:17.794Z,12.03
2023-05-20T04:41:18.181Z,12.07
2023-05-20T04:42:19.062Z,12.25
2023-05-20T04:43:19.937Z,12.59
2023-05-20T04:44:20.827Z,12.63
2023-05-20T04:45:21.744Z,12.54
2023-05-20T04:46:22.716Z,12.35
2023-05-20T04:47:23.616Z,12.22
2023-05-20T04:48:24.573Z,12.18
2023-05-20T04:49:25.430Z,12.11
2023-05-20T04:50:26.309Z,11.99
2023-05-20T04:51:27.256Z,11.88
2023-05-20T04:52:28.125Z,11.85
2023-05-20T04:53:29.013Z,11.84
2023-05-20T04:54:29.904Z,11.91
2023-05-20T04:57:19.498Z,11.84
2023-05-20T04:58:20.300Z,11.82
2023-05-20T04:59:21.189Z,11.87
2023-05-20T05:00:22.039Z,11.93
2023-05-20T05:01:22.976Z,11.99
2023-05-20T05:02:23.849Z,11.99
2023-05-20T05:05:13.594Z,12.13
2023-05-20T05:06:14.540Z,12.54
2023-05-20T05:07:15.445Z,13.05
2023-05-20T05:08:16.349Z,13.39
2023-05-20T05:09:17.257Z,13.43
2023-05-20T05:10:18.118Z,13.30
2023-05-20T05:13:08.070Z,12.96
2023-05-20T05:14:09.009Z,12.88
2023-05-20T05:15:09.845Z,12.77
2023-05-20T05:16:10.787Z,12.65
2023-05-20T05:17:11.708Z,12.55
2023-05-20T05:18:12.582Z,12.48
2023-05-20T05:19:18.915Z,12.47
2023-05-20T05:20:14.331Z,12.41
2023-05-20T05:21:15.227Z,12.36
2023-05-20T05:22:16.135Z,12.38
2023-05-20T05:23:17.000Z,12.33
2023-05-20T05:24:17.927Z,12.32
2023-05-20T05:25:18.804Z,12.33
2023-05-20T05:26:19.723Z,12.33
2023-05-20T05:27:20.576Z,12.55
2023-05-20T05:28:21.448Z,12.84
2023-05-20T05:29:22.357Z,13.06
2023-05-20T05:30:23.249Z,13.21
2023-05-20T05:31:24.110Z,13.01
2023-05-20T05:32:25.078Z,12.86
2023-05-20T05:33:25.996Z,12.76
2023-05-20T05:34:26.887Z,12.62
2023-05-20T05:35:27.790Z,12.58
2023-05-20T05:36:28.661Z,12.59
2023-05-20T05:37:29.547Z,12.55
2023-05-20T05:38:31.738Z,12.61
2023-05-20T05:39:31.130Z,12.63
2023-05-20T05:40:31.995Z,12.66
2023-05-20T05:41:32.890Z,12.68
2023-05-20T05:42:33.790Z,12.71
2023-05-20T05:43:34.666Z,12.72
2023-05-20T05:44:35.586Z,12.65
2023-05-20T05:45:36.473Z,12.62
2023-05-20T05:46:37.379Z,12.55
2023-05-20T05:47:38.322Z,12.58
2023-05-20T05:50:27.997Z,13.40
2023-05-20T05:51:28.457Z,13.53
2023-05-20T05:52:29.326Z,13.53
2023-05-20T05:53:31.179Z,13.43
2023-05-20T05:54:31.083Z,13.24
2023-05-20T05:55:32.133Z,13.13
2023-05-20T05:56:32.660Z,13.02
2023-05-20T05:57:33.558Z,12.96
2023-05-20T05:58:34.554Z,12.84
2023-05-20T05:59:35.440Z,12.76
2023-05-20T06:00:36.393Z,12.79
2023-05-20T06:01:37.326Z,12.84
2023-05-20T06:02:38.011Z,12.84
2023-05-20T06:03:38.643Z,12.90
2023-05-20T06:04:39.031Z,12.91
2023-05-20T06:05:39.960Z,12.91
2023-05-20T06:06:40.828Z,12.91
2023-05-20T06:07:42.003Z,12.93
2023-05-20T06:08:42.422Z,13.09
2023-05-20T06:09:43.266Z,13.53
2023-05-20T06:10:44.180Z,14.09
2023-05-20T06:11:45.105Z,14.37
2023-05-20T06:12:45.984Z,14.37
2023-05-20T06:13:46.850Z,14.31
2023-05-20T06:14:50.070Z,14.12
2023-05-20T06:15:48.477Z,13.98
2023-05-20T06:16:49.393Z,13.96
2023-05-20T06:17:50.258Z,13.94
2023-05-20T06:18:51.149Z,13.90
2023-05-20T06:19:52.017Z,13.80
2023-05-20T06:20:52.961Z,13.71
2023-05-20T06:21:53.820Z,13.63
2023-05-20T06:22:56.129Z,13.58
2023-05-20T06:23:55.492Z,13.51
2023-05-20T06:24:56.320Z,13.49
2023-05-20T06:25:57.249Z,13.47
2023-05-20T06:26:58.125Z,13.43
2023-05-20T06:27:59.024Z,13.39
2023-05-20T06:28:59.952Z,13.51
2023-05-20T06:30:00.846Z,14.08
2023-05-20T06:31:01.741Z,14.53
2023-05-20T06:32:02.586Z,14.90
2023-05-20T06:33:03.505Z,14.66
2023-05-20T06:34:04.376Z,14.55
2023-05-20T06:35:05.219Z,14.48
2023-05-20T06:36:06.124Z,14.31
2023-05-20T06:37:07.021Z,13.98
2023-05-20T06:38:07.942Z,13.80
2023-05-20T06:39:08.809Z,13.65
2023-05-20T06:40:09.683Z,13.60
2023-05-20T06:41:10.621Z,13.51
2023-05-20T06:42:11.491Z,13.49
2023-05-20T06:43:12.367Z,13.49
2023-05-20T06:44:13.280Z,13.53
2023-05-20T06:45:14.119Z,13.55
2023-05-20T06:46:15.037Z,13.57
2023-05-20T06:47:15.947Z,13.61
2023-05-20T06:48:16.792Z,13.61
2023-05-20T06:49:17.709Z,13.72
2023-05-20T06:50:18.565Z,13.98
2023-05-20T06:51:19.456Z,14.45
2023-05-20T06:52:20.407Z,14.74
2023-05-20T06:53:21.236Z,14.58
2023-05-20T06:54:22.128Z,14.49
2023-05-20T06:55:23.010Z,14.34
2023-05-20T06:56:23.910Z,14.21
2023-05-20T06:57:24.783Z,14.11
2023-05-20T07:00:14.294Z,13.91
2023-05-20T07:01:17.335Z,13.90
2023-05-20T07:02:16.072Z,13.86
2023-05-20T07:03:16.973Z,13.85
2023-05-20T07:04:17.996Z,13.85
2023-05-20T07:05:18.445Z,13.85
2023-05-20T07:08:08.061Z,14.11
2023-05-20T07:09:09.001Z,14.40
2023-05-20T07:10:09.892Z,14.64
2023-05-20T07:11:10.911Z,14.83
2023-05-20T07:12:11.751Z,14.73
2023-05-20T07:13:12.681Z,14.64
2023-05-20T07:14:13.550Z,14.63
2023-05-20T07:15:14.427Z,14.61
2023-05-20T07:16:15.423Z,14.66
2023-05-20T07:17:16.336Z,14.67
2023-05-20T07:18:17.232Z,14.61
2023-05-20T07:19:18.146Z,14.63
2023-05-20T07:22:07.746Z,14.45
2023-05-20T07:23:08.712Z,14.46
2023-05-20T07:24:10.643Z,14.45
2023-05-20T07:25:10.555Z,14.48
2023-05-20T07:26:11.423Z,14.58
2023-05-20T07:27:12.321Z,14.64
2023-05-20T07:30:01.850Z,14.82
2023-05-20T07:31:02.736Z,14.71
2023-05-20T07:32:03.738Z,14.74
2023-05-20T07:33:04.136Z,14.74
2023-05-20T07:34:05.013Z,14.79
2023-05-20T07:35:05.906Z,14.77
2023-05-20T07:36:08.007Z,14.79
2023-05-20T07:37:07.629Z,14.83
2023-05-20T07:38:08.577Z,14.85
2023-05-20T07:39:13.421Z,14.79
2023-05-20T07:40:11.238Z,14.67
2023-05-20T07:43:00.093Z,14.66
2023-05-20T07:44:00.496Z,14.77
2023-05-20T07:45:01.385Z,15.17
2023-05-20T07:46:02.359Z,15.58
2023-05-20T07:47:03.292Z,16.05
2023-05-20T07:48:04.206Z,16.28
2023-05-20T07:49:05.112Z,16.51
2023-05-20T07:50:05.982Z,16.61
2023-05-20T07:51:06.899Z,16.64
2023-05-20T07:52:07.814Z,16.42
2023-05-20T07:53:08.669Z,16.03
2023-05-20T07:54:09.563Z,15.62
2023-05-20T07:55:10.443Z,15.35
2023-05-20T07:56:11.355Z,15.20
2023-05-20T07:57:12.241Z,15.11
2023-05-20T07:58:13.104Z,15.14
2023-05-20T07:59:14.000Z,15.20
2023-05-20T08:00:14.871Z,15.19
2023-05-20T08:01:15.788Z,15.17
2023-05-20T08:02:16.727Z,15.17
2023-05-20T08:05:06.208Z,15.52
2023-05-20T08:06:07.055Z,15.93
2023-05-20T08:07:08.013Z,16.17
2023-05-20T08:08:08.898Z,16.37
2023-05-20T08:09:09.787Z,16.42
2023-05-20T08:10:10.684Z,16.28
2023-05-20T08:11:11.527Z,16.13
2023-05-20T08:12:12.440Z,16.09
2023-05-20T08:13:13.370Z,16.06
2023-05-20T08:14:14.267Z,16.05
2023-05-20T08:15:15.137Z,15.98
2023-05-20T08:16:16.088Z,15.91
2023-05-20T08:17:17.098Z,15.85
2023-05-20T08:18:17.511Z,15.69
2023-05-20T08:19:18.459Z,15.60
2023-05-20T08:20:19.330Z,15.59
2023-05-20T08:21:20.263Z,15.62
2023-05-20T08:24:09.769Z,15.62
2023-05-20T08:25:10.723Z,15.58
2023-05-20T08:26:11.595Z,15.60
2023-05-20T08:27:12.482Z,15.62
2023-05-20T08:28:13.395Z,15.99
2023-05-20T08:29:14.268Z,16.46
2023-05-20T08:30:15.143Z,16.94
2023-05-20T08:31:16.033Z,17.31
2023-05-20T08:32:16.942Z,17.25
2023-05-20T08:33:17.817Z,16.90
2023-05-20T08:34:18.694Z,16.70
2023-05-20T08:35:20.829Z,16.57
2023-05-20T08:36:20.084Z,16.40
2023-05-20T08:37:21.012Z,16.32
2023-05-20T08:38:21.901Z,16.17
2023-05-20T08:39:22.817Z,16.13
2023-05-20T08:40:23.712Z,16.08
2023-05-20T08:41:24.606Z,16.05
2023-05-20T08:42:25.508Z,15.98
2023-05-20T08:43:26.407Z,15.93
2023-05-20T08:44:27.355Z,15.91
2023-05-20T08:45:28.267Z,15.91
2023-05-20T08:46:29.216Z,15.91
2023-05-20T08:47:30.263Z,15.88
2023-05-20T08:48:30.714Z,15.99
2023-05-20T08:49:31.617Z,16.55
2023-05-20T08:50:32.518Z,17.34
2023-05-20T08:51:33.489Z,17.46
2023-05-20T08:52:34.371Z,17.56
2023-05-20T08:53:35.358Z,17.57
2023-05-20T08:54:36.200Z,17.34
2023-05-20T08:55:37.132Z,17.16
2023-05-20T08:56:38.020Z,17.09
2023-05-20T08:57:38.881Z,17.04
2023-05-20T08:58:39.799Z,17.06
2023-05-20T08:59:40.668Z,16.82
2023-05-20T09:00:41.517Z,16.55
2023-05-20T09:01:42.422Z,16.44
2023-05-20T09:02:43.360Z,16.33
2023-05-20T09:03:44.248Z,16.36
2023-05-20T09:04:45.188Z,16.32
2023-05-20T09:05:46.029Z,16.36
2023-05-20T09:06:46.930Z,16.36
2023-05-20T09:07:47.808Z,16.43
2023-05-20T09:08:48.713Z,16.51
2023-05-20T09:09:49.587Z,16.82
2023-05-20T09:10:50.477Z,17.16
2023-05-20T09:11:51.373Z,17.43
2023-05-20T09:12:52.260Z,17.86
2023-05-20T09:13:53.157Z,17.63
2023-05-20T09:14:54.040Z,17.45
2023-05-20T09:15:54.941Z,17.14
2023-05-20T09:16:55.804Z,16.94
2023-05-20T09:17:56.695Z,16.79
2023-05-20T09:18:57.708Z,16.80
2023-05-20T09:19:58.107Z,16.87
2023-05-20T09:20:58.990Z,16.90
2023-05-20T09:21:59.951Z,16.94
2023-05-20T09:23:00.826Z,16.91
2023-05-20T09:24:01.732Z,16.95
2023-05-20T09:25:02.624Z,17.02
2023-05-20T09:26:03.511Z,17.07
2023-05-20T09:27:04.441Z,17.12
2023-05-20T09:28:05.307Z,17.24
2023-05-20T09:29:06.218Z,17.34
2023-05-20T09:30:07.093Z,17.46
2023-05-20T09:31:07.969Z,17.46
2023-05-20T09:32:08.950Z,17.39
2023-05-20T09:33:09.903Z,17.63
2023-05-20T09:34:10.806Z,17.97
2023-05-20T09:35:11.691Z,18.54
2023-05-20T09:36:14.520Z,18.86
2023-05-20T09:37:13.260Z,18.96
2023-05-20T09:38:14.121Z,18.81
2023-05-20T09:39:15.051Z,18.38
2023-05-20T09:40:15.934Z,18.13
2023-05-20T09:41:16.801Z,17.93
2023-05-20T09:42:17.713Z,17.73
2023-05-20T09:43:18.580Z,17.68
2023-05-20T09:44:19.477Z,17.65
2023-05-20T09:47:09.086Z,17.71
2023-05-20T09:48:09.979Z,17.66
2023-05-20T09:49:10.917Z,17.69
2023-05-20T09:50:11.779Z,17.72
2023-05-20T09:51:12.720Z,17.79
2023-05-20T09:52:13.610Z,17.73
2023-05-20T09:53:14.543Z,17.78
2023-05-20T09:54:15.397Z,17.72
2023-05-20T09:55:16.344Z,17.65
2023-05-20T09:56:17.247Z,17.87
2023-05-20T09:57:18.158Z,18.24
2023-05-20T09:58:19.125Z,18.63
2023-05-20T09:59:19.955Z,18.97
2023-05-20T10:00:20.918Z,19.12
2023-05-20T10:01:21.803Z,19.04
2023-05-20T10:02:22.793Z,18.94
2023-05-20T10:03:23.525Z,18.89
2023-05-20T10:04:23.955Z,18.75
2023-05-20T10:05:43.190Z,18.56
2023-05-20T10:06:25.529Z,18.34
2023-05-20T10:07:40.793Z,18.26
2023-05-20T10:08:28.168Z,18.18
2023-05-20T10:09:28.034Z,18.12
2023-05-20T10:10:28.922Z,18.06
2023-05-20T10:11:29.806Z,18.18
2023-05-20T10:14:19.651Z,18.20
2023-05-20T10:15:20.135Z,18.23
2023-05-20T10:16:21.114Z,18.27
2023-05-20T10:17:21.522Z,18.34
2023-05-20T10:18:22.439Z,18.41
2023-05-20T10:19:23.338Z,18.39
2023-05-20T10:20:24.210Z,18.45
2023-05-20T10:21:25.162Z,18.42
2023-05-20T10:22:25.999Z,18.51
2023-05-20T10:23:26.980Z,18.58
2023-05-20T10:24:27.882Z,18.61
2023-05-20T10:25:28.795Z,18.64
2023-05-20T10:26:29.729Z,18.86
2023-05-20T10:27:30.624Z,19.17
2023-05-20T10:28:31.508Z,19.52
2023-05-20T10:29:32.409Z,19.81
2023-05-20T10:30:33.398Z,20.14
2023-05-20T10:31:33.951Z,20.18
2023-05-20T10:32:34.994Z,20.05
2023-05-20T10:33:35.434Z,19.92
2023-05-20T10:34:36.291Z,19.75
2023-05-20T10:35:37.168Z,19.70
2023-05-20T10:36:38.397Z,19.63
2023-05-20T10:37:38.534Z,19.42
2023-05-20T10:38:39.423Z,19.17
2023-05-20T10:39:40.315Z,18.93
2023-05-20T10:40:41.237Z,18.78
2023-05-20T10:41:42.130Z,18.63
2023-05-20T10:42:43.012Z,18.52
2023-05-20T10:43:43.883Z,18.58
2023-05-20T10:44:44.794Z,18.61
2023-05-20T10:45:45.641Z,18.63
2023-05-20T10:47:03.814Z,18.67
2023-05-20T10:47:48.335Z,18.63
2023-05-20T10:48:48.293Z,18.58
2023-05-20T10:49:48.748Z,18.63
2023-05-20T10:50:49.615Z,18.68
2023-05-20T10:51:50.528Z,18.71
2023-05-20T10:52:51.403Z,18.67
2023-05-20T10:53:52.284Z,18.74
2023-05-20T10:54:53.175Z,18.81
2023-05-20T10:57:42.767Z,20.17
2023-05-20T10:58:43.630Z,20.64
2023-05-20T10:59:44.495Z,20.98
2023-05-20T11:00:45.460Z,21.18
2023-05-20T11:01:46.379Z,20.92
2023-05-20T11:02:47.312Z,20.55
2023-05-20T11:05:36.849Z,19.86
2023-05-20T11:06:37.226Z,19.59
2023-05-20T11:07:38.194Z,19.38
2023-05-20T11:08:39.095Z,19.30
2023-05-20T11:09:40.016Z,19.31
2023-05-20T11:10:40.890Z,19.27
2023-05-20T11:11:41.776Z,19.27
2023-05-20T11:12:42.725Z,19.31
2023-05-20T11:13:43.641Z,19.41
2023-05-20T11:14:44.497Z,19.53
2023-05-20T11:15:45.405Z,19.63
2023-05-20T11:16:46.380Z,19.70
2023-05-20T11:17:47.294Z,19.64
2023-05-20T11:18:48.229Z,19.60
2023-05-20T11:19:49.135Z,19.49
2023-05-20T11:20:49.970Z,19.45
2023-05-20T11:21:50.872Z,19.47
2023-05-20T11:22:51.730Z,19.42
2023-05-20T11:23:52.643Z,19.41
2023-05-20T11:24:53.498Z,19.39
2023-05-20T11:25:54.413Z,19.34
2023-05-20T11:26:55.305Z,19.30
2023-05-20T11:27:56.182Z,19.57
2023-05-20T11:28:57.358Z,20.02
2023-05-20T11:29:57.644Z,20.46
2023-05-20T11:30:58.509Z,20.97
2023-05-20T11:31:59.470Z,21.10
2023-05-20T11:32:59.911Z,20.92
2023-05-20T11:34:00.777Z,20.64
2023-05-20T11:35:01.671Z,20.18
2023-05-20T11:36:03.551Z,20.07
2023-05-20T11:37:03.218Z,19.89
2023-05-20T11:38:04.119Z,19.79
2023-05-20T11:39:04.977Z,19.52
2023-05-20T11:40:05.834Z,19.38
2023-05-20T11:41:06.712Z,19.42
2023-05-20T11:42:07.594Z,19.59
2023-05-20T11:43:08.469Z,19.67
2023-05-20T11:44:09.447Z,19.86
2023-05-20T11:45:10.316Z,20.00
2023-05-20T11:46:11.216Z,20.09
2023-05-20T11:49:00.721Z,20.53
2023-05-20T11:50:02.195Z,20.34
2023-05-20T11:51:02.597Z,19.96
2023-05-20T11:52:03.522Z,19.82
2023-05-20T11:53:04.374Z,19.81
2023-05-20T11:54:05.255Z,19.94
2023-05-20T11:55:06.159Z,20.41
2023-05-20T11:56:07.052Z,21.08
2023-05-20T11:57:07.951Z,21.53
2023-05-20T11:58:08.825Z,21.82
2023-05-20T11:59:09.722Z,21.91
2023-05-20T12:00:10.610Z,21.56
2023-05-20T12:01:21.791Z,20.65
2023-05-20T12:02:15.411Z,20.30
2023-05-20T12:03:13.045Z,19.97
2023-05-20T12:04:13.802Z,19.89
2023-05-20T12:05:14.417Z,19.86
2023-05-20T12:06:15.282Z,19.78
2023-05-20T12:07:16.189Z,19.81
2023-05-20T12:08:17.115Z,19.75
2023-05-20T12:11:06.751Z,19.57
2023-05-20T12:12:07.616Z,19.59
2023-05-20T12:13:08.458Z,19.59
2023-05-20T12:14:09.412Z,19.59
2023-05-20T12:15:10.297Z,19.54
2023-05-20T12:16:11.265Z,19.56
2023-05-20T12:19:01.111Z,19.63
2023-05-20T12:20:02.026Z,20.23
2023-05-20T12:21:02.849Z,20.88
2023-05-20T12:22:03.819Z,21.37
2023-05-20T12:23:04.230Z,21.56
2023-05-20T12:24:05.103Z,21.03
2023-05-20T12:25:27.258Z,20.77
2023-05-20T12:26:06.580Z,20.42
2023-05-20T12:27:07.498Z,20.29
2023-05-20T12:28:08.380Z,20.14
2023-05-20T12:29:09.268Z,19.90
2023-05-20T12:30:10.266Z,19.77
2023-05-20T12:31:11.161Z,19.67
2023-05-20T12:32:24.033Z,19.59
2023-05-20T12:33:12.933Z,19.62
2023-05-20T12:34:13.794Z,19.60
2023-05-20T12:35:14.677Z,19.62
2023-05-20T12:36:15.563Z,19.71
2023-05-20T12:37:16.707Z,19.57
2023-05-20T12:38:17.131Z,19.47
2023-05-20T12:41:06.886Z,19.13
2023-05-20T12:42:07.738Z,19.20
2023-05-20T12:43:08.660Z,19.22
2023-05-20T12:44:09.588Z,19.60
2023-05-20T12:45:10.046Z,19.86
2023-05-20T12:46:10.937Z,20.26
2023-05-20T12:49:00.499Z,21.16
2023-05-20T12:50:01.419Z,21.13
2023-05-20T12:51:02.297Z,20.32
2023-05-20T12:52:08.456Z,19.86
2023-05-20T12:53:04.974Z,19.49
2023-05-20T12:54:23.166Z,19.20
2023-05-20T12:55:05.503Z,19.05
2023-05-20T12:56:07.893Z,19.09
2023-05-20T12:57:06.878Z,19.22
2023-05-20T12:58:07.767Z,19.19
2023-05-20T12:59:08.673Z,19.12
2023-05-20T13:00:09.576Z,18.93
2023-05-20T13:02:59.651Z,19.05
2023-05-20T13:03:59.623Z,19.13
2023-05-20T13:05:01.355Z,19.17
2023-05-20T13:06:01.209Z,19.17
2023-05-20T13:07:02.072Z,19.26
2023-05-20T13:08:03.050Z,19.31
2023-05-20T13:09:03.924Z,19.35
2023-05-20T13:10:04.869Z,19.35
2023-05-20T13:11:05.749Z,19.34
2023-05-20T13:12:06.622Z,19.75
2023-05-20T13:13:07.603Z,20.19
2023-05-20T13:14:08.470Z,20.79
2023-05-20T13:15:23.807Z,21.00
2023-05-20T13:16:10.148Z,21.44
2023-05-20T13:17:11.029Z,21.45
2023-05-20T13:18:11.924Z,21.43
2023-05-20T13:19:12.864Z,21.59
2023-05-20T13:20:13.775Z,21.14
2023-05-20T13:21:14.642Z,20.68
2023-05-20T13:22:15.542Z,20.37
2023-05-20T13:23:18.766Z,20.11
2023-05-20T13:24:17.095Z,19.94
2023-05-20T13:25:18.074Z,19.84
2023-05-20T13:26:18.942Z,19.77
2023-05-20T13:27:19.839Z,19.71
2023-05-20T13:28:20.736Z,19.59
2023-05-20T13:29:21.606Z,19.57
2023-05-20T13:30:22.512Z,19.45
2023-05-20T13:31:23.508Z,19.42
2023-05-20T13:32:23.912Z,19.38
2023-05-20T13:33:24.763Z,19.39
2023-05-20T13:34:25.653Z,19.37
2023-05-20T13:35:26.557Z,19.27
2023-05-20T13:36:27.461Z,19.34
2023-05-20T13:37:28.334Z,19.45
2023-05-20T13:40:17.833Z,19.17
2023-05-20T13:41:18.697Z,19.23
2023-05-20T13:42:19.567Z,19.54
2023-05-20T13:43:20.520Z,20.12
2023-05-20T13:44:21.398Z,20.46
2023-05-20T13:45:22.252Z,20.77
2023-05-20T13:46:23.293Z,20.42
2023-05-20T13:47:23.748Z,20.11
2023-05-20T13:48:24.644Z,20.08
2023-05-20T13:49:25.499Z,19.89
2023-05-20T13:50:26.439Z,19.71
2023-05-20T13:51:27.340Z,19.35
2023-05-20T13:52:28.217Z,19.22
2023-05-20T13:53:29.122Z,19.09
2023-05-20T13:54:29.990Z,19.07
2023-05-20T13:55:30.870Z,19.04
2023-05-20T13:56:31.790Z,19.15
2023-05-20T13:57:33.990Z,19.26
2023-05-20T13:58:33.368Z,19.38
2023-05-20T13:59:34.229Z,19.45
2023-05-20T14:00:35.378Z,19.57
2023-05-20T14:01:35.965Z,19.72
2023-05-20T14:02:36.771Z,19.87
2023-05-20T14:03:37.755Z,19.84